createdAt,value
2022-10-31T00:01:26.556Z,31.50
2022-10-31T00:06:26.035Z,31.50
2022-10-31T00:11:27.289Z,31.20
2022-10-31T00:16:29.425Z,24.80
2022-10-31T00:21:29.571Z,23.40
2022-10-31T00:26:28.867Z,21.80
2022-10-31T00:31:31.278Z,23.30
2022-10-31T00:36:30.352Z,29.80
2022-10-31T00:41:32.453Z,35.40
2022-10-31T00:46:31.547Z,26.30
2022-10-31T00:51:32.840Z,28.00
2022-10-31T00:56:34.952Z,24.00
2022-10-31T01:01:34.441Z,23.10
2022-10-31T01:06:33.665Z,22.40
2022-10-31T01:11:34.785Z,24.40
2022-10-31T01:16:36.155Z,24.70
2022-10-31T01:21:37.511Z,20.30
2022-10-31T01:26:38.644Z,32.90
2022-10-31T01:31:40.768Z,30.60
2022-10-31T01:36:40.062Z,25.30
2022-10-31T01:41:41.467Z,28.00
2022-10-31T01:46:42.555Z,27.20
2022-10-31T01:51:43.653Z,21.80
2022-10-31T01:56:44.952Z,20.30
2022-10-31T02:01:47.202Z,28.30
2022-10-31T02:06:47.423Z,22.10
2022-10-31T02:11:46.517Z,21.90
2022-10-31T02:16:47.615Z,21.20
2022-10-31T02:21:48.866Z,21.60
2022-10-31T02:26:50.271Z,19.20
2022-10-31T02:31:51.568Z,17.80
2022-10-31T02:36:52.679Z,24.10
2022-10-31T02:41:53.937Z,22.30
2022-10-31T02:46:55.046Z,21.70
2022-10-31T02:51:56.369Z,17.90
2022-10-31T02:56:57.684Z,20.20
2022-10-31T03:01:59.955Z,18.80
2022-10-31T03:06:59.392Z,23.30
2022-10-31T03:12:01.459Z,22.50
2022-10-31T03:17:01.756Z,16.00
2022-10-31T03:22:01.195Z,18.20
2022-10-31T03:27:03.307Z,16.40
2022-10-31T03:32:02.430Z,14.90
2022-10-31T03:37:04.557Z,18.80
2022-10-31T03:42:03.871Z,14.60
2022-10-31T03:47:05.983Z,17.40
2022-10-31T03:52:05.332Z,18.50
2022-10-31T03:57:06.655Z,15.30
2022-10-31T04:02:10.857Z,16.20
2022-10-31T04:07:08.134Z,15.90
2022-10-31T04:12:09.259Z,14.70
2022-10-31T04:17:10.417Z,11.90
2022-10-31T04:22:11.544Z,13.10
2022-10-31T04:27:12.806Z,21.20
2022-10-31T04:32:13.921Z,95.50
2022-10-31T04:37:16.041Z,27.90
2022-10-31T04:42:15.168Z,101.60
2022-10-31T04:47:16.285Z,166.10
2022-10-31T04:52:17.758Z,126.60
2022-10-31T04:57:19.150Z,51.30
2022-10-31T05:02:24.278Z,82.40
2022-10-31T05:07:22.373Z,135.90
2022-10-31T05:12:21.702Z,382.40
2022-10-31T05:17:22.792Z,206.00
2022-10-31T05:22:24.109Z,293.50
2022-10-31T05:27:25.284Z,252.70
2022-10-31T05:32:26.385Z,234.70
2022-10-31T05:37:27.806Z,189.20
2022-10-31T05:42:29.916Z,179.50
2022-10-31T05:47:30.054Z,146.60
2022-10-31T05:52:30.503Z,149.40
2022-10-31T05:57:29.766Z,103.40
2022-10-31T06:02:30.903Z,44.10
2022-10-31T06:07:32.241Z,40.20
2022-10-31T06:12:35.384Z,56.30
2022-10-31T06:17:34.596Z,134.90
2022-10-31T06:22:35.974Z,170.80
2022-10-31T06:27:37.210Z,79.70
2022-10-31T06:32:39.281Z,118.00
2022-10-31T06:37:38.601Z,115.70
2022-10-31T06:42:40.710Z,97.00
2022-10-31T06:47:56.855Z,120.60
2022-10-31T06:52:40.095Z,88.70
2022-10-31T06:57:41.151Z,122.20
2022-10-31T07:02:43.262Z,267.00
2022-10-31T07:07:42.366Z,169.10
2022-10-31T07:12:43.481Z,255.30
2022-10-31T07:17:44.598Z,163.40
2022-10-31T07:22:50.436Z,170.30
2022-10-31T07:27:46.788Z,88.60
2022-10-31T07:32:45.883Z,101.60
2022-10-31T07:37:47.998Z,114.90
2022-10-31T07:42:47.113Z,47.40
2022-10-31T07:47:48.208Z,39.90
2022-10-31T07:52:49.568Z,70.80
2022-10-31T07:57:50.655Z,18.40
2022-10-31T08:02:51.966Z,8.30
2022-10-31T08:07:53.193Z,36.40
2022-10-31T08:12:54.433Z,97.40
2022-10-31T08:17:55.536Z,269.70
2022-10-31T08:22:58.663Z,164.00
2022-10-31T08:27:58.279Z,93.60
2022-10-31T08:32:58.539Z,69.40
2022-10-31T08:37:58.352Z,106.80
2022-10-31T08:42:57.706Z,181.60
2022-10-31T08:48:00.103Z,170.40
2022-10-31T08:53:05.086Z,131.20
2022-10-31T08:58:01.666Z,90.50
2022-10-31T09:02:58.891Z,64.70
2022-10-31T09:08:01.370Z,112.20
2022-10-31T09:13:01.707Z,151.10
2022-10-31T09:18:01.169Z,172.20
2022-10-31T09:23:00.417Z,62.50
2022-10-31T09:28:02.941Z,107.40
2022-10-31T09:33:02.757Z,95.60
2022-10-31T09:38:02.381Z,60.30
2022-10-31T09:43:00.639Z,29.20
2022-10-31T09:48:02.473Z,11.70
2022-10-31T09:53:01.972Z,10.70
2022-10-31T09:58:01.437Z,8.50
2022-10-31T10:03:02.907Z,8.50
2022-10-31T10:08:02.418Z,9.40
2022-10-31T10:13:06.541Z,8.50
2022-10-31T10:18:03.540Z,11.40
2022-10-31T10:23:04.883Z,10.80
2022-10-31T10:28:06.152Z,12.10
2022-10-31T10:33:08.265Z,15.50
2022-10-31T10:38:08.905Z,20.50
2022-10-31T10:43:09.007Z,11.80
2022-10-31T10:48:09.177Z,20.30
2022-10-31T10:53:08.339Z,12.20
2022-10-31T10:58:09.478Z,11.80
2022-10-31T11:03:10.627Z,12.60
2022-10-31T11:08:11.775Z,12.10
2022-10-31T11:13:12.867Z,12.50
2022-10-31T11:18:14.013Z,13.70
2022-10-31T11:23:15.106Z,15.30
2022-10-31T11:28:17.211Z,13.30
2022-10-31T11:33:17.316Z,12.50
2022-10-31T11:38:17.441Z,13.70
2022-10-31T11:43:16.536Z,13.80
2022-10-31T11:48:17.658Z,15.10
2022-10-31T11:53:18.784Z,14.30
2022-10-31T11:58:20.029Z,13.60
2022-10-31T12:03:21.120Z,12.90
2022-10-31T12:08:22.222Z,13.40
2022-10-31T12:13:23.328Z,14.50
2022-10-31T12:18:24.416Z,15.40
2022-10-31T12:23:25.513Z,12.90
2022-10-31T12:28:27.655Z,12.60
2022-10-31T12:33:27.780Z,15.10
2022-10-31T12:38:27.327Z,14.70
2022-10-31T12:43:27.446Z,12.80
2022-10-31T12:48:27.529Z,13.90
2022-10-31T12:53:27.626Z,12.80
2022-10-31T12:58:26.746Z,18.00
2022-10-31T13:03:28.837Z,14.50
2022-10-31T13:08:27.969Z,14.00
2022-10-31T13:13:30.073Z,12.50
2022-10-31T13:18:30.163Z,12.80
2022-10-31T13:23:49.813Z,12.40
2022-10-31T13:28:29.292Z,14.10
2022-10-31T13:33:31.386Z,13.30
2022-10-31T13:38:30.485Z,14.80
2022-10-31T13:43:31.713Z,13.40
2022-10-31T13:48:33.007Z,13.50
2022-10-31T13:53:34.235Z,15.70
2022-10-31T13:58:35.513Z,14.10
2022-10-31T14:04:03.637Z,12.80
2022-10-31T14:08:37.646Z,13.00
2022-10-31T14:13:37.746Z,14.40
2022-10-31T14:18:37.985Z,13.70
2022-10-31T14:23:39.074Z,13.10
2022-10-31T14:28:39.172Z,17.20
2022-10-31T14:33:38.403Z,17.20
2022-10-31T14:38:39.497Z,15.30
2022-10-31T14:43:40.938Z,20.00
2022-10-31T14:48:43.026Z,15.30
2022-10-31T14:53:43.150Z,18.90
2022-10-31T14:58:42.398Z,17.70
2022-10-31T15:03:57.447Z,17.30
2022-10-31T15:08:44.634Z,18.40
2022-10-31T15:13:46.774Z,14.70
2022-10-31T15:18:48.031Z,16.70
2022-10-31T15:23:47.357Z,16.70
2022-10-31T15:28:48.579Z,17.40
2022-10-31T15:33:49.899Z,19.10
2022-10-31T15:38:51.192Z,16.90
2022-10-31T15:43:52.447Z,17.60
2022-10-31T15:48:54.558Z,17.00
2022-10-31T15:53:53.764Z,18.70
2022-10-31T15:58:55.027Z,18.10
2022-10-31T16:03:56.318Z,17.80
2022-10-31T16:08:56.510Z,22.60
2022-10-31T16:13:57.815Z,16.30
2022-10-31T16:18:59.949Z,23.00
2022-10-31T16:23:59.236Z,18.50
2022-10-31T16:29:08.493Z,21.50
2022-10-31T16:34:01.310Z,18.50
2022-10-31T16:39:02.600Z,23.20
2022-10-31T16:44:03.704Z,17.40
2022-10-31T16:49:06.942Z,17.30
2022-10-31T16:54:07.080Z,24.00
2022-10-31T16:59:09.821Z,17.30
2022-10-31T17:04:08.099Z,20.90
2022-10-31T17:09:07.295Z,14.60
2022-10-31T17:14:09.418Z,16.50
2022-10-31T17:19:08.641Z,18.60
2022-10-31T17:24:09.792Z,25.50
2022-10-31T17:29:10.985Z,26.70
2022-10-31T17:34:12.188Z,20.90
2022-10-31T17:39:13.570Z,39.70
2022-10-31T17:44:14.854Z,47.60
2022-10-31T17:49:16.311Z,40.10
2022-10-31T17:54:15.640Z,38.90
2022-10-31T17:59:17.799Z,34.90
2022-10-31T18:04:17.373Z,35.60
2022-10-31T18:09:16.767Z,36.00
2022-10-31T18:14:18.049Z,36.90
2022-10-31T18:19:19.261Z,52.80
2022-10-31T18:24:20.507Z,42.50
2022-10-31T18:29:21.919Z,42.80
2022-10-31T18:34:22.032Z,39.60
2022-10-31T18:39:21.526Z,37.10
2022-10-31T18:44:20.726Z,40.10
2022-10-31T18:49:23.911Z,40.70
2022-10-31T18:54:23.348Z,43.20
2022-10-31T18:59:22.706Z,33.70
2022-10-31T19:04:22.879Z,32.60
2022-10-31T19:09:24.224Z,35.00
2022-10-31T19:14:25.662Z,51.60
2022-10-31T19:19:26.880Z,55.20
2022-10-31T19:24:28.157Z,35.70
2022-10-31T19:29:29.486Z,38.90
2022-10-31T19:34:30.580Z,38.00
2022-10-31T19:39:32.491Z,46.60
2022-10-31T19:44:31.627Z,34.90
2022-10-31T19:49:32.958Z,40.10
2022-10-31T19:54:34.389Z,34.40
2022-10-31T19:59:39.376Z,37.80
2022-10-31T20:04:37.040Z,39.30
2022-10-31T20:09:36.935Z,21.20
2022-10-31T20:14:36.534Z,27.00
2022-10-31T20:19:36.941Z,55.00
2022-10-31T20:24:36.311Z,27.80
2022-10-31T20:29:38.428Z,17.50
2022-10-31T20:34:37.843Z,29.60
2022-10-31T20:39:39.227Z,78.80
2022-10-31T20:44:41.441Z,27.60
2022-10-31T20:49:40.910Z,44.10
2022-10-31T20:54:40.253Z,22.30
2022-10-31T20:59:42.585Z,26.90
2022-10-31T21:04:43.897Z,32.70
2022-10-31T21:09:43.024Z,25.90
2022-10-31T21:14:45.168Z,25.60
2022-10-31T21:19:44.464Z,27.30
2022-10-31T21:24:45.577Z,23.50
2022-10-31T21:29:46.787Z,34.40
2022-10-31T21:34:47.905Z,43.80
2022-10-31T21:39:51.011Z,31.10
2022-10-31T21:44:51.515Z,33.40
2022-10-31T21:49:50.633Z,67.50
2022-10-31T21:54:52.813Z,58.90
2022-10-31T21:59:51.963Z,119.40
2022-10-31T22:04:53.344Z,65.40
2022-10-31T22:09:54.445Z,48.10
2022-10-31T22:14:54.538Z,178.70
2022-10-31T22:19:55.915Z,107.50
2022-10-31T22:24:57.234Z,82.60
2022-10-31T22:29:59.339Z,68.20
2022-10-31T22:34:59.736Z,121.40
2022-10-31T22:39:58.852Z,58.20
2022-10-31T22:44:59.944Z,127.30
2022-10-31T22:50:02.079Z,104.00
2022-10-31T22:55:01.324Z,333.50
2022-10-31T23:00:03.413Z,100.80
2022-10-31T23:05:02.515Z,175.10
2022-10-31T23:10:02.615Z,219.70
2022-10-31T23:15:03.835Z,250.90
2022-10-31T23:20:05.945Z,370.90
2022-10-31T23:25:06.037Z,271.60
2022-10-31T23:30:05.308Z,349.10
2022-10-31T23:35:06.529Z,272.20
2022-10-31T23:40:07.668Z,248.40
2022-10-31T23:45:09.775Z,276.00
2022-10-31T23:50:08.873Z,237.20
2022-10-31T23:55:10.053Z,317.80
